Data for 10/29/2008

Time Sea-Level Adjusted Pressure Absolute Pressure Temperature Relative Humidity Dew Point   
(mb) (inHg) (mb) (inHg) (C) (F) (%) (C) (F)
00:05 1024 30.24 853 25.19 9.3 48.7 39 -3.9 24.9
00:10 1024 30.24 853 25.19 9.1 48.4 38 -4.3 24.3
00:15 1024 30.24 853 25.19 9.3 48.7 38 -4.2 24.4
00:20 1024 30.24 853 25.19 9.4 49 37 -4.3 24.2
00:25 1024 30.24 853 25.19 9.2 48.6 39 -3.9 24.9
00:30 1024 30.24 853 25.19 8.6 47.5 40 -4.3 24.3
00:35 1024 30.24 853 25.19 8.7 47.7 38 -4.7 23.5
00:40 1024 30.24 853 25.19 8.9 48.1 38 -4.7 23.5
00:45 1024 30.24 853 25.19 9 48.2 37 -5 23
00:50 1024 30.24 853 25.19 9.3 48.7 35 -5.3 22.5
00:55 1024 30.24 853 25.19 9.8 49.7 33 -5.6 21.9
01:00 1024 30.24 853 25.19 10.1 50.3 32 -5.8 21.5
01:05 1024 30.24 853 25.19 10.1 50.2 33 -5.6 22
01:10 1024 30.24 853 25.19 9.7 49.4 32 -6.2 20.9
01:15 1024 30.24 853 25.19 9.4 49 34 -5.8 21.5
01:20 1024 30.24 853 25.19 9.4 48.8 33 -6.2 20.8
01:25 1024 30.24 853 25.19 9 48.1 34 -6 21.3
01:30 1024 30.24 853 25.19 8.5 47.2 34 -6.3 20.6
01:35 1024 30.24 853 25.19 8.4 47.1 35 -6.3 20.6
01:40 1024 30.24 853 25.19 8.6 47.5 34 -6.5 20.2
01:45 1023 30.21 853 25.19 8.7 47.7 32 -7 19.4
01:50 1023 30.21 853 25.19 9.2 48.6 33 -6.3 20.7
01:55 1023 30.21 853 25.19 9 48.3 32 -6.8 19.7
02:00 1023 30.21 853 25.19 9.3 48.8 31 -6.9 19.5
02:05 1023 30.21 853 25.19 9.5 49.2 31 -6.6 20.2
02:10 1023 30.21 853 25.19 9.2 48.5 32 -6.7 19.9
02:15 1023 30.21 853 25.19 8.8 47.8 33 -6.5 20.3
02:20 1023 30.21 853 25.19 8.4 47.1 34 -6.4 20.5
02:25 1023 30.21 853 25.19 8.6 47.4 33 -6.7 19.9
02:30 1023 30.21 853 25.19 8.8 47.8 33 -6.8 19.8
02:35 1023 30.21 852 25.16 8.6 47.6 33 -6.9 19.6
02:40 1023 30.21 852 25.16 8.5 47.3 33 -7 19.4
02:45 1023 30.21 852 25.16 8.7 47.6 31 -7.3 18.8
02:50 1023 30.21 852 25.16 9.1 48.3 32 -7 19.5
02:55 1023 30.21 852 25.16 8.8 47.9 31 -7.2 19
03:00 1023 30.21 852 25.16 8.9 48.1 31 -7.3 18.8
03:05 1023 30.21 852 25.16 9.1 48.4 31 -7.2 19.1
03:10 1023 30.21 852 25.16 8.8 47.8 31 -7.3 18.8
03:15 1023 30.21 852 25.16 8.7 47.6 32 -6.9 19.6
03:20 1023 30.21 852 25.16 8.4 47.1 32 -7.2 19
03:25 1023 30.21 852 25.16 8.4 47.2 31 -7.6 18.2
03:30 1023 30.21 852 25.16 8.8 47.9 31 -7.4 18.7
03:35 1023 30.21 852 25.16 8.4 47.1 33 -7 19.4
03:40 1023 30.21 852 25.16 8.1 46.6 33 -7.1 19.2
03:45 1023 30.21 852 25.16 7.8 46 35 -6.8 19.8
03:50 1023 30.21 852 25.16 7.3 45.2 36 -6.8 19.8
03:55 1023 30.21 852 25.16 7.1 44.8 36 -6.9 19.5
04:00 1022 30.18 852 25.16 7.2 45 36 -6.9 19.5
04:05 1022 30.18 852 25.16 7 44.7 36 -6.9 19.6
04:10 1022 30.18 852 25.16 6.9 44.4 36 -7.1 19.3
04:15 1022 30.18 852 25.16 7.1 44.8 34 -7.8 18
04:20 1022 30.18 851 25.13 7.8 46 32 -7.7 18.1
04:25 1022 30.18 851 25.13 8.1 46.6 32 -7.7 18.2
04:30 1022 30.18 851 25.13 8.2 46.7 32 -7.4 18.8
04:35 1022 30.18 851 25.13 7.8 46 34 -7.1 19.1
04:40 1022 30.18 851 25.13 7.6 45.6 34 -7.5 18.6
04:45 1022 30.18 851 25.13 7.6 45.7 34 -7.4 18.8
04:50 1022 30.18 851 25.13 7.5 45.5 34 -7.2 19
04:55 1022 30.18 851 25.13 7.7 45.8 33 -7.5 18.4
05:00 1022 30.18 851 25.13 8 46.3 33 -7.4 18.7
05:05 1022 30.18 851 25.13 7.7 45.8 35 -7 19.4
05:10 1022 30.18 851 25.13 7.4 45.4 35 -7.1 19.2
05:15 1022 30.18 851 25.13 7.6 45.6 34 -7.2 19
05:20 1022 30.18 851 25.13 7.6 45.6 34 -7.5 18.5
05:25 1022 30.18 851 25.13 8.4 47.2 31 -7.6 18.3
05:30 1022 30.18 851 25.13 8.1 46.5 34 -6.7 19.9
05:35 1022 30.18 851 25.13 7.3 45.1 36 -6.9 19.7
05:40 1022 30.18 851 25.13 6.8 44.2 38 -6.7 20
05:45 1022 30.18 851 25.13 6.2 43.1 38 -7 19.4
05:50 1022 30.18 851 25.13 6.3 43.3 37 -7.3 18.9
05:55 1022 30.18 851 25.13 6 42.8 41 -6.1 21
06:00 1022 30.18 851 25.13 5.8 42.5 44 -5.6 21.9
06:05 1022 30.18 851 25.13 6 42.7 45 -5 22.9
06:10 1022 30.18 851 25.13 5.9 42.6 46 -4.7 23.5
06:15 1022 30.18 851 25.13 6.3 43.3 44 -5.1 22.9
06:20 1022 30.18 851 25.13 6.5 43.7 42 -5.5 22.1
06:25 1022 30.18 851 25.13 6.7 44 41 -5.6 21.9
06:30 1022 30.18 851 25.13 6.3 43.3 41 -6 21.3
06:35 1022 30.18 851 25.13 6.4 43.5 39 -6.6 20.1
06:40 1022 30.18 851 25.13 6.4 43.5 38 -6.9 19.6
06:45 1022 30.18 851 25.13 6.6 43.9 35 -7.8 18
06:50 1022 30.18 851 25.13 7.2 44.9 34 -7.6 18.3
06:55 1022 30.18 851 25.13 7.4 45.3 33 -7.8 18
07:00 1022 30.18 851 25.13 7.5 45.6 33 -7.8 18
07:05 1022 30.18 851 25.13 7.4 45.3 33 -7.7 18.2
07:10 1022 30.18 851 25.13 7.3 45.1 35 -7.4 18.7
07:15 1022 30.18 851 25.13 7.1 44.8 35 -7.2 19
07:20 1022 30.18 851 25.13 7.1 44.7 35 -7.3 18.9
07:25 1022 30.18 851 25.13 7 44.6 34 -7.6 18.3
07:30 1022 30.18 851 25.13 7.1 44.7 35 -7.2 19
07:35 1022 30.18 851 25.13 6.6 43.9 39 -6.4 20.4
07:40 1022 30.18 851 25.13 6.2 43.2 39 -6.6 20.2
07:45 1022 30.18 851 25.13 6.4 43.5 39 -6.6 20.2
07:50 1022 30.18 851 25.13 6.3 43.3 39 -6.7 20
07:55 1022 30.18 851 25.13 6.1 42.9 39 -6.8 19.7
08:00 1022 30.18 851 25.13 6.3 43.3 39 -6.9 19.7
08:05 1022 30.18 851 25.13 6.6 43.8 35 -7.7 18.1
08:10 1022 30.18 851 25.13 7.3 45.1 33 -8 17.6
08:15 1022 30.18 851 25.13 7.8 46.1 34 -7.2 19.1
08:20 1022 30.18 851 25.13 7.7 45.8 34 -7.2 19.1
08:25 1022 30.18 851 25.13 7.5 45.5 35 -7.1 19.3
08:30 1022 30.18 851 25.13 7.4 45.4 34 -7.3 18.9
08:35 1022 30.18 851 25.13 7.2 45 36 -6.9 19.6
08:40 1022 30.18 851 25.13 6.7 44 40 -5.9 21.4
08:45 1022 30.18 851 25.13 5.9 42.6 43 -5.8 21.6
08:50 1022 30.18 851 25.13 5.8 42.4 40 -6.9 19.5
08:55 1022 30.18 851 25.13 6.6 43.8 37 -7 19.4
09:00 1022 30.18 851 25.13 6.9 44.4 40 -5.9 21.4
09:05 1022 30.18 851 25.13 6.4 43.5 40 -6.2 20.8
09:10 1022 30.18 851 25.13 6.3 43.3 41 -6.1 21.1
09:15 1022 30.18 851 25.13 6.2 43.1 41 -6 21.2
09:20 1022 30.18 851 25.13 6.3 43.4 41 -6.1 21.1
09:25 1022 30.18 851 25.13 6.3 43.4 42 -5.6 21.8
09:30 1022 30.18 851 25.13 6 42.8 44 -5.3 22.4
09:35 1022 30.18 851 25.13 6 42.8 44 -5.2 22.7
09:40 1022 30.18 851 25.13 6.2 43.1 43 -5.4 22.2
09:45 1022 30.18 851 25.13 6.6 43.9 40 -6 21.3
09:50 1022 30.18 851 25.13 7.5 45.5 37 -6.3 20.7
09:55 1022 30.18 851 25.13 8.3 46.9 34 -6.7 19.9
10:00 1022 30.18 851 25.13 9 48.1 33 -6.4 20.5
10:05 1022 30.18 851 25.13 9.4 49 33 -6.1 21.1
10:10 1022 30.18 851 25.13 9.7 49.5 32 -6 21.2
10:15 1022 30.18 851 25.13 10.1 50.2 32 -5.7 21.7
10:20 1022 30.18 851 25.13 10.3 50.6 33 -5.2 22.6
10:25 1022 30.18 851 25.13 10.2 50.4 33 -5.4 22.3
10:30 1022 30.18 851 25.13 10.5 50.9 33 -5.3 22.5
10:35 1022 30.18 851 25.13 10.8 51.4 33 -4.9 23.3
10:40 1022 30.18 851 25.13 11.1 51.9 33 -4.4 24.1
10:45 1022 30.18 851 25.13 11.2 52.2 34 -4 24.8
10:50 1022 30.18 851 25.13 11.4 52.4 34 -4 24.8
10:55 1022 30.18 851 25.13 11.6 53 32 -4.4 24.1
11:00 1022 30.18 851 25.13 11.9 53.5 32 -4.3 24.3
11:05 1022 30.18 851 25.13 12.2 53.9 30 -5.1 22.9
11:10 1022 30.18 851 25.13 12.5 54.4 30 -4.6 23.8
11:15 1022 30.18 851 25.13 12.7 54.8 29 -4.8 23.4
11:20 1022 30.18 851 25.13 13 55.5 29 -4.4 24.1
11:25 1022 30.18 851 25.13 13.4 56.2 29 -4.2 24.5
11:30 1022 30.18 851 25.13 13.5 56.4 29 -4 24.8
11:35 1021 30.15 851 25.13 13.8 56.9 28 -4.3 24.3
11:40 1021 30.15 851 25.13 14.1 57.4 28 -4 24.9
11:45 1021 30.15 851 25.13 14.6 58.2 26 -4.5 23.9
11:50 1021 30.15 851 25.13 14.5 58.1 28 -3.8 25.1
11:55 1021 30.15 851 25.13 14.4 58 29 -3.1 26.4
12:00 1021 30.15 851 25.13 14.2 57.6 30 -3.1 26.3
12:05 1021 30.15 851 25.13 14.3 57.7 29 -3.5 25.7
12:10 1021 30.15 851 25.13 14.4 57.9 30 -3 26.5
12:15 1021 30.15 851 25.13 14.4 58 29 -3.4 25.9
12:20 1021 30.15 850 25.1 14.5 58.2 29 -3.3 26.1
12:25 1021 30.15 850 25.1 14.7 58.4 29 -3.3 26.1
12:30 1021 30.15 850 25.1 14.7 58.4 29 -3.1 26.4
12:35 1021 30.15 850 25.1 14.8 58.6 29 -2.9 26.7
12:40 1021 30.15 850 25.1 14.9 58.8 28 -3.2 26.3
12:45 1021 30.15 850 25.1 15 59 29 -2.9 26.7
12:50 1021 30.15 850 25.1 15.2 59.4 29 -2.4 27.7
12:55 1021 30.15 850 25.1 15.5 59.8 28 -2.9 26.9
13:00 1021 30.15 850 25.1 15.9 60.7 28 -2.7 27.2
13:05 1021 30.15 850 25.1 16.5 61.8 27 -2.6 27.4
13:10 1021 30.15 850 25.1 16.8 62.3 27 -2.3 27.9
13:15 1021 30.15 850 25.1 16.8 62.3 27 -2.1 28.2
13:20 1021 30.15 850 25.1 16.9 62.5 27 -1.8 28.7
13:25 1021 30.15 850 25.1 16.6 61.9 29 -1.2 29.8
13:30 1020 30.12 850 25.1 15.3 59.5 34 -0.6 30.9
13:35 1020 30.12 850 25.1 13.3 55.9 37 -0.9 30.4
13:40 1020 30.12 850 25.1 12.4 54.3 38 -1.4 29.4
13:45 1020 30.12 849 25.07 12.5 54.6 36 -2.2 28
13:50 1020 30.12 849 25.07 13.4 56.2 34 -2 28.4
13:55 1020 30.12 849 25.07 14 57.1 33 -1.9 28.5
14:00 1020 30.12 849 25.07 14 57.2 34 -1.7 29
14:05 1020 30.12 849 25.07 13.6 56.6 36 -1 30.2
14:10 1020 30.12 849 25.07 13.6 56.4 35 -1.4 29.5
14:15 1020 30.12 849 25.07 14.1 57.4 33 -1.7 29
14:20 1020 30.12 849 25.07 14.5 58.1 32 -1.7 28.9
14:25 1020 30.12 849 25.07 15 59.1 32 -1.2 29.8
14:30 1020 30.12 849 25.07 15.1 59.3 33 -0.8 30.5
14:35 1020 30.12 849 25.07 15.1 59.1 32 -1.3 29.7
14:40 1020 30.12 849 25.07 15.6 60 32 -1.1 30
14:45 1020 30.12 849 25.07 16 60.7 32 -0.5 31
14:50 1020 30.12 849 25.07 15.9 60.6 31 -1 30.2
14:55 1020 30.12 849 25.07 15.8 60.5 31 -1 30.2
15:00 1019 30.09 849 25.07 15.8 60.4 33 -0.4 31.2
15:05 1019 30.09 849 25.07 14.8 58.7 34 -0.7 30.7
15:10 1019 30.09 849 25.07 14.6 58.3 33 -1.2 29.8
15:15 1019 30.09 849 25.07 15 59 34 -0.8 30.6
15:20 1019 30.09 849 25.07 15.6 60.1 32 -1.1 30
15:25 1019 30.09 848 25.04 16.5 61.6 29 -1.5 29.3
15:30 1019 30.09 848 25.04 17.3 63.1 28 -1.4 29.5
15:35 1019 30.09 848 25.04 16.7 62 29 -1.3 29.7
15:40 1019 30.09 848 25.04 17.6 63.6 26 -2.1 28.2
15:45 1019 30.09 848 25.04 18.2 64.7 26 -1.5 29.4
15:50 1019 30.09 848 25.04 18.3 65 26 -1.5 29.2
15:55 1019 30.09 848 25.04 18.3 65 24 -2.3 27.8
16:00 1019 30.09 848 25.04 18.5 65.2 24 -2.3 27.9
16:05 1019 30.09 848 25.04 18.8 65.9 24 -2 28.5
16:10 1019 30.09 848 25.04 18.8 65.9 24 -2.1 28.2
16:15 1019 30.09 848 25.04 18.3 65 24 -2.7 27.2
16:20 1019 30.09 848 25.04 18.1 64.6 23 -3 26.6
16:25 1019 30.09 848 25.04 19 66.1 23 -2.5 27.4
16:30 1019 30.09 848 25.04 19 66.2 23 -2.2 28
16:35 1019 30.09 848 25.04 18.8 65.9 24 -2.2 28
16:40 1019 30.09 848 25.04 18.7 65.6 24 -2.5 27.6
16:45 1019 30.09 848 25.04 18.7 65.7 24 -2.3 27.8
16:50 1019 30.09 848 25.04 18.6 65.4 23 -2.6 27.4
16:55 1019 30.09 848 25.04 18.9 65.9 24 -1.7 28.9
17:00 1019 30.09 848 25.04 19.1 66.3 23 -2.3 27.9
17:05 1019 30.09 848 25.04 19.6 67.3 22 -2.6 27.3
17:10 1019 30.09 848 25.04 19.4 67 23 -2.1 28.2
17:15 1019 30.09 848 25.04 18.8 65.9 24 -2 28.5
17:20 1019 30.09 848 25.04 18.9 66.1 24 -2 28.3
17:25 1019 30.09 848 25.04 18.9 66 24 -1.8 28.7
17:30 1019 30.09 848 25.04 18.7 65.6 25 -1.8 28.8
17:35 1019 30.09 848 25.04 18.1 64.6 25 -2.1 28.2
17:40 1019 30.09 848 25.04 17.8 64 26 -1.9 28.6
17:45 1019 30.09 848 25.04 17.2 63 27 -1.9 28.6
17:50 1019 30.09 848 25.04 16.8 62.3 27 -2.1 28.3
17:55 1019 30.09 848 25.04 16.6 61.9 27 -2.5 27.5
18:00 1019 30.09 848 25.04 16.5 61.6 27 -2.3 27.8
18:05 1019 30.09 848 25.04 16.1 61 30 -1.4 29.5
18:10 1019 30.09 848 25.04 15.1 59.2 33 -1.1 30.1
18:15 1019 30.09 848 25.04 14.2 57.6 34 -1.3 29.7
18:20 1019 30.09 848 25.04 13.7 56.6 36 -0.9 30.3
18:25 1019 30.09 848 25.04 13.4 56 37 -1.1 30
18:30 1019 30.09 848 25.04 13.3 56 38 -0.5 31.1
18:35 1019 30.09 848 25.04 13.4 56.1 39 -0.4 31.3
18:40 1018 30.06 848 25.04 13.5 56.4 39 -0.2 31.7
18:45 1018 30.06 848 25.04 13.3 55.9 40 0.1 32.2
18:50 1019 30.09 848 25.04 12.8 55.1 42 0.2 32.4
18:55 1019 30.09 848 25.04 12 53.6 45 0.4 32.8
19:00 1019 30.09 848 25.04 11.3 52.4 46 0.2 32.3
19:05 1019 30.09 848 25.04 11.1 51.9 46 0.1 32.1
19:10 1019 30.09 848 25.04 10.9 51.5 47 -0 32
19:15 1019 30.09 848 25.04 10.7 51.2 47 -0.1 31.9
19:20 1019 30.09 848 25.04 10.6 51 48 0 32.1
19:25 1019 30.09 848 25.04 10.2 50.4 49 -0.1 31.8
19:30 1019 30.09 848 25.04 10 50 49 -0.1 31.8
19:35 1019 30.09 848 25.04 9.8 49.7 50 -0.1 31.9
19:40 1019 30.09 848 25.04 9.6 49.2 50 -0.2 31.7
19:45 1019 30.09 848 25.04 9.4 49 50 -0.4 31.3
19:50 1019 30.09 848 25.04 9.5 49 49 -0.7 30.8
19:55 1019 30.09 848 25.04 9.7 49.5 48 -0.7 30.7
20:00 1019 30.09 848 25.04 9.7 49.4 48 -0.8 30.5
20:05 1019 30.09 848 25.04 9.7 49.4 48 -0.9 30.5
20:10 1019 30.09 848 25.04 9.8 49.7 46 -1.3 29.7
20:15 1019 30.09 848 25.04 10 50 46 -1.2 29.8
20:20 1019 30.09 848 25.04 10.1 50.1 44 -1.4 29.4
20:25 1019 30.09 848 25.04 10.1 50.2 45 -1.4 29.5
20:30 1019 30.09 848 25.04 10.1 50.2 44 -1.5 29.4
20:35 1019 30.09 848 25.04 9.9 49.7 46 -1.2 29.8
20:40 1019 30.09 848 25.04 9.4 49 47 -1.1 30
20:45 1019 30.09 848 25.04 9.2 48.5 47 -1.5 29.3
20:50 1018 30.06 848 25.04 9.5 49.1 45 -1.8 28.8
20:55 1018 30.06 848 25.04 9.9 49.9 41 -2.6 27.3
21:00 1019 30.09 848 25.04 10.3 50.5 36 -4.1 24.6
21:05 1019 30.09 848 25.04 10.3 50.5 36 -4.1 24.6
21:10 1019 30.09 848 25.04 9.9 49.7 40 -3 26.5
21:15 1019 30.09 848 25.04 8.9 48.1 42 -3.3 26.1
21:20 1019 30.09 848 25.04 8.4 47.2 43 -3.5 25.6
21:25 1019 30.09 848 25.04 8.2 46.8 42 -3.8 25.2
21:30 1019 30.09 848 25.04 8.4 47.1 39 -4.8 23.4
21:35 1019 30.09 848 25.04 9 48.1 35 -5.7 21.8
21:40 1019 30.09 848 25.04 9.8 49.6 34 -5.5 22.2
21:45 1019 30.09 848 25.04 10.3 50.5 34 -4.7 23.5
21:50 1019 30.09 848 25.04 9.8 49.7 37 -4.3 24.3
21:55 1019 30.09 848 25.04 9.2 48.6 37 -4.6 23.7
22:00 1019 30.09 848 25.04 8.9 48 39 -4.2 24.4
22:05 1019 30.09 848 25.04 8.6 47.4 39 -4.5 23.9
22:10 1019 30.09 848 25.04 8.7 47.7 38 -4.9 23.2
22:15 1019 30.09 848 25.04 8.9 48 39 -4.4 24
22:20 1019 30.09 848 25.04 8.4 47.1 43 -3.3 26
22:25 1019 30.09 848 25.04 8.1 46.6 43 -3.7 25.3
22:30 1019 30.09 848 25.04 8.3 46.9 42 -3.8 25.2
22:35 1019 30.09 848 25.04 8.1 46.6 46 -2.8 27
22:40 1019 30.09 848 25.04 7.6 45.6 48 -2.7 27.2
22:45 1019 30.09 848 25.04 7.5 45.4 46 -3.4 25.8
22:50 1019 30.09 848 25.04 7.6 45.6 46 -3.1 26.3
22:55 1019 30.09 848 25.04 7.6 45.7 44 -3.8 25.2
23:00 1019 30.09 848 25.04 7.8 46.1 43 -3.9 24.9
23:05 1019 30.09 848 25.04 7.8 46 43 -4 24.8
23:10 1019 30.09 848 25.04 7.7 45.8 42 -4.3 24.3
23:15 1019 30.09 848 25.04 8 46.3 41 -4.4 24
23:20 1019 30.09 848 25.04 8.1 46.5 40 -4.6 23.7
23:25 1019 30.09 848 25.04 8.4 47.2 39 -4.8 23.3
23:30 1019 30.09 848 25.04 8.4 47.2 39 -4.8 23.4
23:35 1019 30.09 848 25.04 8.5 47.2 38 -4.9 23.1
23:40 1019 30.09 848 25.04 8.5 47.2 38 -5.1 22.8
23:45 1019 30.09 848 25.04 8.5 47.3 38 -5 23.1
23:50 1019 30.09 848 25.04 8.3 46.9 39 -5 23.1
23:55 1019 30.09 848 25.04 8.1 46.6 38 -5.4 22.3
24:00 1019 30.09 848 25.04 8.3 47 38 -5.3 22.5